Time;durP1;ratioP1;P1;durP2;ratioP2;P2;SDS_P1;SDS_P2;PMS_P1;PMS_P2;Temp;Humidity;BMP_temperature;BMP_pressure;BME280_temperature;BME280_humidity;BME280_pressure;Samples;Min_cycle;Max_cycle;Signal;HPM_P1;HPM_P2
2023/04/15 00:01:51;;;;;;;7.23;3.90;;;;;;;;;;5054687;28;20021;-83
2023/04/15 00:04:16;;;;;;;6.03;3.57;;;;;;;;;;5056826;28;20029;-79
2023/04/15 00:06:42;;;;;;;3.67;3.00;;;;;;;;;;5056167;28;20020;-82
2023/04/15 00:09:07;;;;;;;5.47;3.10;;;;;;;;;;5055278;28;20248;-81
2023/04/15 00:11:33;;;;;;;3.97;2.47;;;;;;;;;;5054447;28;20026;-82
2023/04/15 00:13:59;;;;;;;3.70;2.97;;;;;;;;;;5055493;28;20040;-81
2023/04/15 00:16:25;;;;;;;6.50;3.30;;;;;;;;;;5054521;28;20529;-82
2023/04/15 00:18:50;;;;;;;5.03;3.20;;;;;;;;;;5054870;28;20118;-81
2023/04/15 00:21:16;;;;;;;3.47;3.00;;;;;;;;;;5053042;28;20024;-78
2023/04/15 00:23:43;;;;;;;5.10;2.97;;;;;;;;;;5054111;28;20029;-81
2023/04/15 00:26:08;;;;;;;4.20;2.30;;;;;;;;;;5053381;28;20124;-83
2023/04/15 00:28:34;;;;;;;3.17;2.47;;;;;;;;;;5054689;28;20052;-81
2023/04/15 00:30:59;;;;;;;2.50;2.03;;;;;;;;;;5055142;28;20025;-81
2023/04/15 00:33:25;;;;;;;2.43;2.20;;;;;;;;;;5056026;28;20071;-81
2023/04/15 00:35:50;;;;;;;3.53;2.50;;;;;;;;;;5054152;28;20417;-82
2023/04/15 00:38:16;;;;;;;2.50;2.03;;;;;;;;;;5054014;28;20033;-84
2023/04/15 00:40:42;;;;;;;2.70;1.43;;;;;;;;;;5055023;28;20033;-84
2023/04/15 00:43:07;;;;;;;4.23;2.20;;;;;;;;;;5054919;28;20438;-82
2023/04/15 00:45:33;;;;;;;2.30;1.63;;;;;;;;;;5054596;28;20033;-82
2023/04/15 00:47:58;;;;;;;1.60;1.50;;;;;;;;;;5055684;28;20080;-82
2023/04/15 00:50:24;;;;;;;2.20;1.63;;;;;;;;;;5054961;28;20031;-82
2023/04/15 00:52:49;;;;;;;2.20;1.70;;;;;;;;;;5054236;28;20083;-81
2023/04/15 00:55:15;;;;;;;5.37;2.20;;;;;;;;;;5053850;28;20055;-83
2023/04/15 00:57:41;;;;;;;3.97;2.00;;;;;;;;;;5057192;28;20078;-83
2023/04/15 01:00:08;;;;;;;4.30;2.67;;;;;;;;;;5058027;28;20032;-81
2023/04/15 01:02:35;;;;;;;3.20;2.00;;;;;;;;;;5058478;28;20033;-82
2023/04/15 01:05:01;;;;;;;3.30;2.30;;;;;;;;;;5056888;28;20086;-83
2023/04/15 01:07:26;;;;;;;2.90;2.17;;;;;;;;;;5057101;28;20037;-82
2023/04/15 01:09:52;;;;;;;2.87;2.63;;;;;;;;;;5058349;28;20504;-81
2023/04/15 01:12:19;;;;;;;2.77;2.20;;;;;;;;;;5057983;28;20123;-83
2023/04/15 01:14:45;;;;;;;3.27;2.33;;;;;;;;;;5057558;28;20015;-83
2023/04/15 01:17:11;;;;;;;2.60;2.10;;;;;;;;;;5058169;28;20140;-83
2023/04/15 01:19:37;;;;;;;2.53;2.30;;;;;;;;;;5058070;28;20039;-82
2023/04/15 01:22:04;;;;;;;5.13;2.20;;;;;;;;;;5058887;28;20033;-83
2023/04/15 01:24:32;;;;;;;2.50;2.03;;;;;;;;;;5057947;28;20443;-83
2023/04/15 01:26:58;;;;;;;3.60;2.13;;;;;;;;;;5057909;28;20499;-82
2023/04/15 01:29:23;;;;;;;5.10;3.10;;;;;;;;;;5058495;28;20035;-82
2023/04/15 01:31:54;;;;;;;3.63;2.83;;;;;;;;;;5057720;28;20581;-83
2023/04/15 01:34:21;;;;;;;3.60;3.30;;;;;;;;;;5057109;28;20465;-80
2023/04/15 01:36:47;;;;;;;2.80;2.50;;;;;;;;;;5058017;28;20012;-81
2023/04/15 01:39:12;;;;;;;4.40;3.00;;;;;;;;;;5056302;28;20020;-81
2023/04/15 01:41:39;;;;;;;4.73;4.27;;;;;;;;;;5056588;28;20033;-82
2023/04/15 01:44:05;;;;;;;5.17;3.80;;;;;;;;;;5056042;28;20033;-82
2023/04/15 01:46:31;;;;;;;3.43;3.13;;;;;;;;;;5055702;28;20059;-84
2023/04/15 01:48:57;;;;;;;4.03;3.20;;;;;;;;;;5041207;28;20037;-83
2023/04/15 01:51:22;;;;;;;3.50;3.20;;;;;;;;;;5058442;28;20037;-81
2023/04/15 01:53:48;;;;;;;4.13;3.30;;;;;;;;;;5056585;28;20446;-83
2023/04/15 01:56:13;;;;;;;3.93;3.20;;;;;;;;;;5056277;28;20025;-83
2023/04/15 01:58:39;;;;;;;5.47;2.93;;;;;;;;;;5056285;28;20033;-83
2023/04/15 02:01:04;;;;;;;3.80;3.33;;;;;;;;;;5057498;28;20017;-83
2023/04/15 02:03:30;;;;;;;2.90;2.67;;;;;;;;;;5057219;28;20055;-83
2023/04/15 02:05:56;;;;;;;3.93;2.70;;;;;;;;;;5056885;28;20118;-82
2023/04/15 02:08:22;;;;;;;4.47;2.90;;;;;;;;;;5055079;28;20025;-83
2023/04/15 02:10:47;;;;;;;3.20;2.90;;;;;;;;;;5058601;28;20025;-82
2023/04/15 02:13:13;;;;;;;3.93;3.23;;;;;;;;;;5056325;28;20491;-83
2023/04/15 02:15:38;;;;;;;3.00;2.70;;;;;;;;;;5057273;28;20079;-82
2023/04/15 02:18:04;;;;;;;3.00;2.70;;;;;;;;;;5057916;28;20021;-82
2023/04/15 02:20:29;;;;;;;5.00;2.87;;;;;;;;;;5057254;28;20043;-82
2023/04/15 02:22:56;;;;;;;5.37;3.00;;;;;;;;;;5056125;28;20036;-83
2023/04/15 02:25:21;;;;;;;3.53;2.77;;;;;;;;;;5056865;28;20021;-81
2023/04/15 02:27:47;;;;;;;5.90;2.60;;;;;;;;;;5054247;28;20108;-81
2023/04/15 02:30:13;;;;;;;5.27;3.73;;;;;;;;;;5056428;28;20029;-82
2023/04/15 02:32:42;;;;;;;2.97;2.70;;;;;;;;;;5056493;28;20352;-81
2023/04/15 02:35:08;;;;;;;3.43;3.13;;;;;;;;;;5055364;28;20048;-81
2023/04/15 02:37:39;;;;;;;4.00;3.10;;;;;;;;;;5054583;28;20028;-81
2023/04/15 02:40:10;;;;;;;3.13;2.85;;;;;;;;;;5054822;28;20531;-82
2023/04/15 02:42:37;;;;;;;4.20;3.05;;;;;;;;;;5038890;28;20037;-84
2023/04/15 02:45:03;;;;;;;3.37;2.37;;;;;;;;;;5055631;28;20044;-83
2023/04/15 02:47:28;;;;;;;5.17;2.40;;;;;;;;;;5054331;28;20416;-83
2023/04/15 02:49:54;;;;;;;2.47;2.20;;;;;;;;;;5056923;28;20033;-83
2023/04/15 02:52:20;;;;;;;5.97;2.70;;;;;;;;;;5056516;28;20017;-82
2023/04/15 02:54:45;;;;;;;3.03;2.43;;;;;;;;;;5055233;28;20029;-82
2023/04/15 02:57:11;;;;;;;3.97;2.73;;;;;;;;;;5055654;28;20045;-83
2023/04/15 02:59:38;;;;;;;2.80;2.17;;;;;;;;;;5056817;28;20448;-84
2023/04/15 03:02:06;;;;;;;3.53;2.20;;;;;;;;;;5056967;28;20100;-83
2023/04/15 03:04:32;;;;;;;4.40;2.60;;;;;;;;;;5056093;28;20496;-82
2023/04/15 03:06:57;;;;;;;2.80;2.53;;;;;;;;;;5056791;28;20033;-82
2023/04/15 03:09:23;;;;;;;2.20;2.00;;;;;;;;;;5056229;28;20071;-81
2023/04/15 03:11:50;;;;;;;4.40;2.37;;;;;;;;;;5036906;28;20449;-82
2023/04/15 03:14:15;;;;;;;2.97;2.17;;;;;;;;;;5054602;28;20017;-81
2023/04/15 03:16:41;;;;;;;3.20;2.07;;;;;;;;;;5054158;28;20027;-83
2023/04/15 03:19:06;;;;;;;2.80;1.90;;;;;;;;;;5054385;28;20029;-80
2023/04/15 03:21:32;;;;;;;2.90;2.13;;;;;;;;;;5052746;28;20542;-82
2023/04/15 03:23:57;;;;;;;2.60;1.87;;;;;;;;;;5053818;28;20029;-83
2023/04/15 03:26:28;;;;;;;3.43;2.20;;;;;;;;;;5054562;28;20039;-83
2023/04/15 03:28:54;;;;;;;3.33;1.97;;;;;;;;;;5039463;28;20469;-82
2023/04/15 03:31:20;;;;;;;2.63;1.67;;;;;;;;;;5055217;28;20025;-83
2023/04/15 03:33:45;;;;;;;6.37;2.30;;;;;;;;;;5054583;28;20013;-83
2023/04/15 03:36:10;;;;;;;1.97;1.77;;;;;;;;;;5054012;28;20250;-82
2023/04/15 03:38:36;;;;;;;1.77;1.60;;;;;;;;;;5055522;28;20039;-81
2023/04/15 03:41:01;;;;;;;2.53;2.10;;;;;;;;;;5055851;28;20067;-83
2023/04/15 03:43:27;;;;;;;2.20;2.00;;;;;;;;;;5054908;28;20160;-81
2023/04/15 03:45:52;;;;;;;2.57;2.20;;;;;;;;;;5054367;28;20447;-82
2023/04/15 03:48:18;;;;;;;2.50;2.20;;;;;;;;;;5056347;28;20016;-82
2023/04/15 03:50:43;;;;;;;3.50;2.57;;;;;;;;;;5056157;28;20068;-82
2023/04/15 03:53:09;;;;;;;4.17;2.30;;;;;;;;;;5054939;28;20033;-83
2023/04/15 03:55:34;;;;;;;3.23;2.83;;;;;;;;;;5055394;28;20044;-82
2023/04/15 03:58:00;;;;;;;3.03;2.75;;;;;;;;;;5056627;28;20044;-83
2023/04/15 04:00:26;;;;;;;2.90;2.70;;;;;;;;;;5056779;28;20083;-81
2023/04/15 04:02:51;;;;;;;4.07;3.10;;;;;;;;;;5037878;28;20044;-82
2023/04/15 04:05:17;;;;;;;4.40;4.00;;;;;;;;;;5054686;28;20037;-81
2023/04/15 04:07:42;;;;;;;6.50;4.60;;;;;;;;;;5056634;28;20384;-83
2023/04/15 04:10:08;;;;;;;8.10;5.40;;;;;;;;;;5054861;28;20021;-82
2023/04/15 04:12:34;;;;;;;9.13;6.33;;;;;;;;;;5055306;28;20029;-84
2023/04/15 04:14:59;;;;;;;10.17;6.60;;;;;;;;;;5056205;28;20478;-83
2023/04/15 04:17:25;;;;;;;11.27;7.23;;;;;;;;;;5054287;28;20138;-82
2023/04/15 04:19:51;;;;;;;12.13;7.10;;;;;;;;;;5054303;28;20087;-82
2023/04/15 04:22:16;;;;;;;9.80;6.80;;;;;;;;;;5053768;28;20068;-83
2023/04/15 04:24:42;;;;;;;9.60;6.17;;;;;;;;;;5054946;28;20036;-82
2023/04/15 04:27:08;;;;;;;9.67;6.00;;;;;;;;;;5054806;28;20443;-81
2023/04/15 04:29:34;;;;;;;8.57;6.23;;;;;;;;;;5057118;28;20052;-83
2023/04/15 04:31:59;;;;;;;10.07;5.17;;;;;;;;;;5056430;28;20033;-81
2023/04/15 04:34:25;;;;;;;7.30;5.33;;;;;;;;;;5057741;28;20029;-82
2023/04/15 04:36:50;;;;;;;8.07;5.33;;;;;;;;;;5058685;28;20033;-82
2023/04/15 04:39:16;;;;;;;6.43;4.20;;;;;;;;;;5058289;28;20025;-81
2023/04/15 04:41:41;;;;;;;7.23;4.10;;;;;;;;;;5059627;28;20024;-83
2023/04/15 04:44:07;;;;;;;8.03;4.80;;;;;;;;;;5058085;28;20036;-82
2023/04/15 04:46:32;;;;;;;8.10;4.40;;;;;;;;;;5058636;28;20116;-83
2023/04/15 04:48:59;;;;;;;6.60;4.10;;;;;;;;;;5061239;28;20028;-80
2023/04/15 04:51:25;;;;;;;5.63;4.67;;;;;;;;;;5058629;28;20067;-82
2023/04/15 04:53:50;;;;;;;6.47;4.60;;;;;;;;;;5059301;28;20029;-82
2023/04/15 04:56:16;;;;;;;5.07;4.07;;;;;;;;;;5059192;28;20550;-81
2023/04/15 04:58:41;;;;;;;5.93;4.00;;;;;;;;;;5060406;28;20017;-81
2023/04/15 05:01:07;;;;;;;4.47;3.80;;;;;;;;;;5058403;28;20025;-82
2023/04/15 05:03:33;;;;;;;6.57;4.03;;;;;;;;;;5058427;28;20037;-79
2023/04/15 05:05:58;;;;;;;6.33;4.40;;;;;;;;;;5058514;28;20028;-82
2023/04/15 05:08:24;;;;;;;5.60;3.60;;;;;;;;;;5060593;28;20033;-82
2023/04/15 05:10:50;;;;;;;7.33;4.00;;;;;;;;;;5058707;28;20033;-81
2023/04/15 05:13:15;;;;;;;5.10;4.17;;;;;;;;;;5059658;28;20096;-82
2023/04/15 05:15:42;;;;;;;5.20;3.57;;;;;;;;;;5058879;28;20217;-83
2023/04/15 05:18:07;;;;;;;5.43;3.80;;;;;;;;;;5060553;28;20401;-82
2023/04/15 05:20:33;;;;;;;3.73;3.40;;;;;;;;;;5059519;28;20025;-81
2023/04/15 05:22:58;;;;;;;5.20;3.60;;;;;;;;;;5058222;28;20033;-82
2023/04/15 05:25:24;;;;;;;4.83;3.67;;;;;;;;;;5057722;28;20071;-82
2023/04/15 05:27:50;;;;;;;4.40;3.40;;;;;;;;;;5057208;28;20029;-82
2023/04/15 05:30:16;;;;;;;5.83;5.00;;;;;;;;;;5060020;28;20358;-83
2023/04/15 05:32:41;;;;;;;5.43;4.00;;;;;;;;;;5058318;28;20040;-82
2023/04/15 05:35:07;;;;;;;5.20;3.20;;;;;;;;;;5059403;28;20025;-82
2023/04/15 05:37:33;;;;;;;4.33;3.10;;;;;;;;;;5057713;28;20033;-83
2023/04/15 05:39:58;;;;;;;5.23;4.73;;;;;;;;;;5057485;28;20124;-82
2023/04/15 05:42:24;;;;;;;5.77;4.70;;;;;;;;;;5058429;28;20021;-82
2023/04/15 05:44:49;;;;;;;4.57;3.47;;;;;;;;;;5057179;28;20055;-82
2023/04/15 05:47:15;;;;;;;4.63;3.20;;;;;;;;;;5058114;28;20071;-82
2023/04/15 05:49:40;;;;;;;5.90;3.50;;;;;;;;;;5058288;28;20025;-83
2023/04/15 05:52:06;;;;;;;3.77;3.07;;;;;;;;;;5057048;28;20039;-82
2023/04/15 05:54:31;;;;;;;3.53;2.50;;;;;;;;;;5056752;28;20025;-82
2023/04/15 05:56:57;;;;;;;7.73;2.97;;;;;;;;;;5057348;28;20025;-81
2023/04/15 05:59:23;;;;;;;4.03;2.57;;;;;;;;;;5057654;28;20028;-82
2023/04/15 06:01:49;;;;;;;2.30;2.10;;;;;;;;;;5056733;28;20050;-82
2023/04/15 06:04:15;;;;;;;4.23;2.70;;;;;;;;;;5055561;28;20032;-83
2023/04/15 06:06:41;;;;;;;3.03;2.23;;;;;;;;;;5056479;28;20457;-82
2023/04/15 06:09:07;;;;;;;2.73;2.03;;;;;;;;;;5057042;28;20086;-82
2023/04/15 06:11:32;;;;;;;3.33;2.47;;;;;;;;;;5057681;28;20032;-83
2023/04/15 06:13:58;;;;;;;2.70;2.20;;;;;;;;;;5058628;28;20029;-83
2023/04/15 06:16:23;;;;;;;2.33;2.13;;;;;;;;;;5056095;28;20041;-81
2023/04/15 06:18:49;;;;;;;2.87;2.67;;;;;;;;;;5055436;28;20036;-82
2023/04/15 06:21:16;;;;;;;2.50;2.30;;;;;;;;;;5056309;28;20550;-82
2023/04/15 06:23:43;;;;;;;2.33;2.07;;;;;;;;;;5057512;28;20117;-82
2023/04/15 06:26:08;;;;;;;3.35;1.95;;;;;;;;;;5058844;28;20025;-82
2023/04/15 06:28:34;;;;;;;2.80;2.53;;;;;;;;;;5058287;28;20039;-82
2023/04/15 06:31:00;;;;;;;3.50;2.15;;;;;;;;;;5058584;28;20103;-82
2023/04/15 06:33:26;;;;;;;3.00;2.60;;;;;;;;;;5057922;28;20039;-81
2023/04/15 06:35:52;;;;;;;2.25;2.05;;;;;;;;;;5056965;28;20029;-81
2023/04/15 06:38:17;;;;;;;2.47;2.25;;;;;;;;;;5057384;28;20456;-84
2023/04/15 06:40:43;;;;;;;2.42;2.22;;;;;;;;;;5058947;28;20025;-83
2023/04/15 06:43:09;;;;;;;3.20;1.98;;;;;;;;;;5040602;28;20056;-84
2023/04/15 06:45:34;;;;;;;2.15;1.95;;;;;;;;;;5056117;28;20013;-83
2023/04/15 06:48:00;;;;;;;2.70;2.50;;;;;;;;;;5055392;28;20049;-82
2023/04/15 06:50:26;;;;;;;4.32;2.50;;;;;;;;;;5055297;28;20469;-82
2023/04/15 06:52:53;;;;;;;2.47;2.28;;;;;;;;;;5057798;28;20199;-81
2023/04/15 06:55:21;;;;;;;2.33;2.13;;;;;;;;;;5056985;28;20070;-82
2023/04/15 06:57:46;;;;;;;2.30;1.70;;;;;;;;;;5057574;28;20491;-83
2023/04/15 07:00:12;;;;;;;1.77;1.60;;;;;;;;;;5055436;28;20064;-82
2023/04/15 07:02:38;;;;;;;1.48;1.30;;;;;;;;;;5056878;28;20115;-80
2023/04/15 07:05:04;;;;;;;1.80;1.20;;;;;;;;;;5055075;28;20060;-82
2023/04/15 07:07:30;;;;;;;2.83;1.45;;;;;;;;;;5054863;28;20123;-82
2023/04/15 07:09:56;;;;;;;3.88;3.60;;;;;;;;;;5055274;28;20052;-83
2023/04/15 07:12:21;;;;;;;0.50;0.50;;;;;;;;;;5055461;28;20029;-82
2023/04/15 07:14:47;;;;;;;5.60;3.35;;;;;;;;;;5054584;28;20041;-82
2023/04/15 07:17:12;;;;;;;1.20;1.10;;;;;;;;;;5056857;28;20024;-82
2023/04/15 07:19:38;;;;;;;0.82;0.60;;;;;;;;;;5057102;28;20060;-81
2023/04/15 07:22:03;;;;;;;0.52;0.52;;;;;;;;;;5055841;28;20453;-82
2023/04/15 07:24:31;;;;;;;0.55;0.55;;;;;;;;;;5057042;28;20053;-81
2023/04/15 07:26:57;;;;;;;1.60;0.90;;;;;;;;;;5054395;28;20087;-82
2023/04/15 07:29:22;;;;;;;2.15;1.20;;;;;;;;;;5055473;28;20036;-82
2023/04/15 07:31:48;;;;;;;0.80;0.70;;;;;;;;;;5055505;28;20103;-83
2023/04/15 07:34:13;;;;;;;1.23;0.95;;;;;;;;;;5056673;28;20060;-81
2023/04/15 07:36:39;;;;;;;0.50;0.50;;;;;;;;;;5055926;28;20021;-83
2023/04/15 07:39:05;;;;;;;1.00;0.60;;;;;;;;;;5055328;28;20469;-82
2023/04/15 07:41:30;;;;;;;0.50;0.50;;;;;;;;;;5055028;28;20029;-84
2023/04/15 07:43:56;;;;;;;0.73;0.52;;;;;;;;;;5056225;28;20472;-84
2023/04/15 07:46:23;;;;;;;0.88;0.80;;;;;;;;;;5054621;28;20059;-82
2023/04/15 07:48:49;;;;;;;0.50;0.50;;;;;;;;;;5056371;28;20029;-83
2023/04/15 07:51:16;;;;;;;3.30;0.70;;;;;;;;;;5056453;28;20021;-83
2023/04/15 07:53:43;;;;;;;1.42;1.15;;;;;;;;;;5055425;28;20025;-82
2023/04/15 07:56:09;;;;;;;7.32;6.72;;;;;;;;;;5055649;28;20062;-83
2023/04/15 07:58:34;;;;;;;2.00;1.17;;;;;;;;;;5055576;28;20075;-84
2023/04/15 08:01:00;;;;;;;0.68;0.35;;;;;;;;;;5054745;28;20027;-81
2023/04/15 08:03:27;;;;;;;1.92;0.60;;;;;;;;;;5056295;28;20051;-83
2023/04/15 08:05:53;;;;;;;6.07;0.95;;;;;;;;;;5055564;28;20029;-82
2023/04/15 08:08:20;;;;;;;0.85;0.77;;;;;;;;;;5055363;28;20035;-82
2023/04/15 08:10:46;;;;;;;0.70;0.65;;;;;;;;;;5056356;28;20039;-83
2023/04/15 08:13:12;;;;;;;3.33;0.73;;;;;;;;;;5056297;28;20112;-82
2023/04/15 08:15:37;;;;;;;3.13;0.60;;;;;;;;;;5055276;28;20060;-82
2023/04/15 08:18:03;;;;;;;0.50;0.50;;;;;;;;;;5056495;28;20108;-82
2023/04/15 08:20:29;;;;;;;0.82;0.70;;;;;;;;;;5056388;28;20025;-83
2023/04/15 08:22:55;;;;;;;1.25;0.82;;;;;;;;;;5056465;28;20044;-83
2023/04/15 08:25:20;;;;;;;3.10;0.77;;;;;;;;;;5056472;28;20021;-82
2023/04/15 08:27:46;;;;;;;0.95;0.80;;;;;;;;;;5054595;28;20496;-82
2023/04/15 08:30:12;;;;;;;3.63;1.00;;;;;;;;;;5055906;28;20266;-82
2023/04/15 08:32:40;;;;;;;3.22;2.00;;;;;;;;;;5054394;28;20059;-83
2023/04/15 08:35:06;;;;;;;0.70;0.70;;;;;;;;;;5037207;28;20060;-82
2023/04/15 08:37:32;;;;;;;2.28;1.05;;;;;;;;;;5055205;28;20024;-81
2023/04/15 08:39:57;;;;;;;1.83;1.20;;;;;;;;;;5053954;28;20025;-81
2023/04/15 08:42:30;;;;;;;4.95;1.10;;;;;;;;;;5056328;28;20202;-81
2023/04/15 08:44:58;;;;;;;3.70;1.02;;;;;;;;;;5053853;28;20459;-82
2023/04/15 08:47:28;;;;;;;3.15;1.30;;;;;;;;;;5054709;28;20162;-81
2023/04/15 08:49:55;;;;;;;1.27;1.17;;;;;;;;;;5055176;28;20017;-81
2023/04/15 08:52:21;;;;;;;1.23;1.00;;;;;;;;;;5038906;28;20029;-82
2023/04/15 08:54:47;;;;;;;1.85;1.13;;;;;;;;;;5056641;28;20052;-83
2023/04/15 08:57:14;;;;;;;1.27;1.17;;;;;;;;;;5054747;28;20153;-83
2023/04/15 08:59:41;;;;;;;3.85;1.30;;;;;;;;;;5039042;28;20107;-82
2023/04/15 09:02:08;;;;;;;1.52;1.42;;;;;;;;;;5053829;28;20029;-82
2023/04/15 09:04:33;;;;;;;1.20;1.10;;;;;;;;;;5053408;28;20020;-82
2023/04/15 09:06:59;;;;;;;0.93;0.93;;;;;;;;;;5056704;28;20484;-82
2023/04/15 09:09:24;;;;;;;1.80;1.00;;;;;;;;;;5055944;28;20028;-83
2023/04/15 09:11:50;;;;;;;1.90;1.42;;;;;;;;;;5054963;28;20454;-82
2023/04/15 09:14:16;;;;;;;1.92;1.25;;;;;;;;;;5055040;28;20033;-82
2023/04/15 09:17:03;;;;;;;1.95;1.75;;;;;;;;;;5055390;28;20033;-83
2023/04/15 09:19:30;;;;;;;1.40;1.30;;;;;;;;;;5059185;28;20441;-83
2023/04/15 09:21:58;;;;;;;2.15;1.92;;;;;;;;;;5058300;28;20112;-83
2023/04/15 09:24:25;;;;;;;2.83;1.38;;;;;;;;;;5063040;28;20037;-82
2023/04/15 09:26:55;;;;;;;1.40;1.30;;;;;;;;;;5064845;28;20024;-81
2023/04/15 09:29:24;;;;;;;1.90;1.15;;;;;;;;;;5061146;28;20074;-82
2023/04/15 09:31:52;;;;;;;3.42;1.50;;;;;;;;;;5058941;28;20021;-81
2023/04/15 09:34:18;;;;;;;2.13;1.50;;;;;;;;;;5041109;28;20036;-83
2023/04/15 09:36:46;;;;;;;2.88;1.67;;;;;;;;;;5059537;28;20029;-81
2023/04/15 09:39:12;;;;;;;2.60;1.50;;;;;;;;;;5059046;28;20071;-81
2023/04/15 09:41:40;;;;;;;2.55;1.70;;;;;;;;;;5061334;28;20029;-81
2023/04/15 09:44:06;;;;;;;2.38;2.00;;;;;;;;;;5058320;28;20037;-84
2023/04/15 09:46:45;;;;;;;4.57;1.83;;;;;;;;;;5057918;28;20107;-83
2023/04/15 09:49:11;;;;;;;4.22;1.58;;;;;;;;;;5059617;28;20032;-82
2023/04/15 09:51:38;;;;;;;3.25;1.75;;;;;;;;;;5057990;28;20098;-81
2023/04/15 09:54:06;;;;;;;7.22;2.63;;;;;;;;;;5058109;28;20025;-83
2023/04/15 09:56:40;;;;;;;1.75;1.42;;;;;;;;;;5059753;28;20025;-83
2023/04/15 09:59:08;;;;;;;1.83;1.70;;;;;;;;;;5058881;28;20049;-83
2023/04/15 10:01:35;;;;;;;3.25;2.03;;;;;;;;;;5058606;28;20170;-81
2023/04/15 10:04:03;;;;;;;1.80;1.70;;;;;;;;;;5040600;28;20052;-81
2023/04/15 10:06:29;;;;;;;1.92;1.77;;;;;;;;;;5040735;28;20029;-82
2023/04/15 10:08:59;;;;;;;1.85;1.75;;;;;;;;;;5058442;28;20043;-83
2023/04/15 10:11:28;;;;;;;2.47;1.70;;;;;;;;;;5041251;28;20035;-82
2023/04/15 10:13:56;;;;;;;1.40;1.30;;;;;;;;;;5066477;28;20036;-83
2023/04/15 10:16:27;;;;;;;3.90;1.48;;;;;;;;;;5061293;28;20020;-82
2023/04/15 10:18:58;;;;;;;2.38;2.17;;;;;;;;;;5059683;28;20033;-81
2023/04/15 10:21:24;;;;;;;2.87;2.50;;;;;;;;;;5058086;28;20029;-82
2023/04/15 10:23:50;;;;;;;4.50;2.63;;;;;;;;;;5057306;28;20032;-81
2023/04/15 10:26:16;;;;;;;7.20;2.20;;;;;;;;;;5058061;28;20515;-82
2023/04/15 10:28:42;;;;;;;2.70;2.50;;;;;;;;;;5058469;28;20036;-81
2023/04/15 10:31:13;;;;;;;6.35;2.05;;;;;;;;;;5058048;28;20032;-83
2023/04/15 10:33:40;;;;;;;3.15;2.28;;;;;;;;;;5055753;28;20114;-83
2023/04/15 10:36:06;;;;;;;7.70;2.38;;;;;;;;;;5056245;28;20095;-81
2023/04/15 10:38:36;;;;;;;1.85;1.63;;;;;;;;;;5057045;28;20027;-81
2023/04/15 10:41:17;;;;;;;1.90;1.40;;;;;;;;;;5057473;28;20037;-81
2023/04/15 10:43:54;;;;;;;2.17;1.98;;;;;;;;;;5057724;28;20024;-84
2023/04/15 10:46:40;;;;;;;3.08;1.95;;;;;;;;;;5057105;28;20052;-83
2023/04/15 10:49:09;;;;;;;2.78;1.65;;;;;;;;;;5056059;28;20035;-83
2023/04/15 10:51:41;;;;;;;2.45;2.00;;;;;;;;;;5055413;28;20032;-82
2023/04/15 10:54:26;;;;;;;3.45;2.30;;;;;;;;;;5055389;28;20020;-83
2023/04/15 10:57:07;;;;;;;4.63;3.13;;;;;;;;;;5055834;28;20121;-78
2023/04/15 10:59:38;;;;;;;2.88;2.03;;;;;;;;;;5055146;28;20051;-81
2023/04/15 11:02:06;;;;;;;4.13;2.38;;;;;;;;;;5056830;28;20029;-81
2023/04/15 11:04:54;;;;;;;3.17;2.50;;;;;;;;;;5055741;28;20476;-84
2023/04/15 11:07:47;;;;;;;5.93;3.30;;;;;;;;;;5056689;28;20025;-80
2023/04/15 11:10:12;;;;;;;2.30;2.10;;;;;;;;;;5055875;28;20111;-83
2023/04/15 11:12:38;;;;;;;2.83;1.90;;;;;;;;;;5057943;28;20262;-82
2023/04/15 11:15:32;;;;;;;4.72;2.85;;;;;;;;;;5038169;28;20040;-82
2023/04/15 11:18:14;;;;;;;7.97;4.78;;;;;;;;;;5056045;28;20028;-84
2023/04/15 11:20:41;;;;;;;3.03;2.05;;;;;;;;;;5055436;28;20020;-83
2023/04/15 11:23:08;;;;;;;3.08;2.20;;;;;;;;;;5056613;28;20029;-83
2023/04/15 11:25:38;;;;;;;5.10;2.25;;;;;;;;;;5056315;28;20005;-83
2023/04/15 11:28:04;;;;;;;3.17;2.03;;;;;;;;;;5057269;28;20048;-82
2023/04/15 11:30:35;;;;;;;2.97;2.05;;;;;;;;;;5054952;28;20047;-83
2023/04/15 11:33:03;;;;;;;3.90;1.90;;;;;;;;;;5055923;28;20017;-82
2023/04/15 11:35:31;;;;;;;2.03;1.80;;;;;;;;;;5055415;28;20078;-83
2023/04/15 11:37:57;;;;;;;4.45;1.70;;;;;;;;;;5038110;28;20024;-82
2023/04/15 11:40:29;;;;;;;10.25;3.03;;;;;;;;;;5055390;28;20036;-83
2023/04/15 11:43:15;;;;;;;5.22;2.33;;;;;;;;;;5056117;28;20020;-83
2023/04/15 11:46:00;;;;;;;3.03;1.70;;;;;;;;;;5056503;28;20103;-83
2023/04/15 11:48:28;;;;;;;3.15;1.70;;;;;;;;;;5058979;28;20036;-81
2023/04/15 11:51:06;;;;;;;2.28;1.80;;;;;;;;;;5039151;28;20359;-80
2023/04/15 11:53:51;;;;;;;3.00;1.92;;;;;;;;;;5057607;28;20354;-84
2023/04/15 11:56:22;;;;;;;7.00;1.80;;;;;;;;;;5057766;28;20368;-83
2023/04/15 11:58:51;;;;;;;3.28;1.92;;;;;;;;;;5059052;28;20453;-83
2023/04/15 12:01:20;;;;;;;4.20;2.38;;;;;;;;;;5055798;28;20087;-81
2023/04/15 12:03:47;;;;;;;1.60;1.50;;;;;;;;;;5055711;28;20028;-83
2023/04/15 12:06:19;;;;;;;3.88;2.00;;;;;;;;;;5054982;28;20261;-83
2023/04/15 12:09:08;;;;;;;3.53;1.88;;;;;;;;;;5056164;28;20025;-84
2023/04/15 12:11:51;;;;;;;4.63;2.40;;;;;;;;;;5056607;28;20043;-84
2023/04/15 12:14:21;;;;;;;3.47;2.10;;;;;;;;;;5054610;28;20025;-84
2023/04/15 12:16:50;;;;;;;3.75;2.65;;;;;;;;;;5055877;28;20033;-82
2023/04/15 12:19:21;;;;;;;3.53;2.00;;;;;;;;;;5039720;28;20074;-83
2023/04/15 12:21:50;;;;;;;2.47;1.80;;;;;;;;;;5056790;28;20021;-84
2023/04/15 12:24:20;;;;;;;7.18;3.00;;;;;;;;;;5057044;28;20140;-83
2023/04/15 12:26:52;;;;;;;11.98;3.50;;;;;;;;;;5040943;28;20025;-85
2023/04/15 12:29:18;;;;;;;;;;;;;;;;;;5059060;28;20114;-82
2023/04/15 12:31:58;;;;;;;5.25;2.90;;;;;;;;;;5056126;28;20284;-84
2023/04/15 12:34:29;;;;;;;6.10;3.90;;;;;;;;;;5057364;28;20013;-83
2023/04/15 12:36:56;;;;;;;2.70;2.37;;;;;;;;;;5055819;28;20528;-83
2023/04/15 12:39:27;;;;;;;14.32;4.60;;;;;;;;;;5055247;28;20071;-82
2023/04/15 12:41:53;;;;;;;7.90;2.72;;;;;;;;;;5055394;28;20029;-83
2023/04/15 12:44:18;;;;;;;4.15;3.33;;;;;;;;;;5056532;28;20037;-82
2023/04/15 12:46:45;;;;;;;5.68;2.33;;;;;;;;;;5054385;28;20452;-82
2023/04/15 12:49:10;;;;;;;6.40;2.53;;;;;;;;;;5053616;28;20029;-83
2023/04/15 12:51:36;;;;;;;5.82;2.60;;;;;;;;;;5056026;28;20142;-82
2023/04/15 12:54:03;;;;;;;3.42;2.13;;;;;;;;;;5061386;28;20025;-81
2023/04/15 12:56:28;;;;;;;6.40;2.13;;;;;;;;;;5045324;28;20435;-83
2023/04/15 12:58:54;;;;;;;3.13;2.47;;;;;;;;;;5060526;28;20044;-83
2023/04/15 13:01:19;;;;;;;1.65;1.52;;;;;;;;;;5060980;28;20025;-82
2023/04/15 13:03:46;;;;;;;2.47;1.80;;;;;;;;;;5060820;28;20033;-82
2023/04/15 13:06:12;;;;;;;2.22;2.00;;;;;;;;;;5059644;28;20048;-79
2023/04/15 13:08:41;;;;;;;2.20;1.50;;;;;;;;;;5059417;28;20036;-81
2023/04/15 13:11:06;;;;;;;4.63;2.15;;;;;;;;;;5060600;28;20103;-82
2023/04/15 13:13:32;;;;;;;3.80;2.60;;;;;;;;;;5061765;28;20060;-83
2023/04/15 13:15:58;;;;;;;2.58;1.65;;;;;;;;;;5061135;28;20089;-83
2023/04/15 13:18:23;;;;;;;10.55;2.30;;;;;;;;;;5059367;28;20091;-82
2023/04/15 13:20:50;;;;;;;4.30;2.38;;;;;;;;;;5057743;28;20124;-83
2023/04/15 13:23:16;;;;;;;3.72;2.17;;;;;;;;;;5060824;28;20032;-83
2023/04/15 13:25:42;;;;;;;3.22;2.17;;;;;;;;;;5059936;28;20017;-82
2023/04/15 13:28:12;;;;;;;6.25;2.95;;;;;;;;;;5058802;28;20040;-81
2023/04/15 13:30:38;;;;;;;3.03;2.25;;;;;;;;;;5057755;28;20029;-83
2023/04/15 13:33:05;;;;;;;3.65;2.30;;;;;;;;;;5056526;28;20033;-82
2023/04/15 13:35:31;;;;;;;4.00;1.90;;;;;;;;;;5055951;28;20079;-83
2023/04/15 13:37:57;;;;;;;2.00;1.60;;;;;;;;;;5056851;28;20461;-83
2023/04/15 13:40:22;;;;;;;3.92;1.88;;;;;;;;;;5058608;28;20083;-83
2023/04/15 13:42:48;;;;;;;2.53;1.90;;;;;;;;;;5059305;28;20135;-83
2023/04/15 13:45:14;;;;;;;4.60;2.15;;;;;;;;;;5060762;28;20006;-83
2023/04/15 13:47:41;;;;;;;2.08;1.77;;;;;;;;;;5058530;28;20076;-83
2023/04/15 13:50:06;;;;;;;2.00;1.80;;;;;;;;;;5056985;28;20033;-82
2023/04/15 13:52:32;;;;;;;2.10;1.80;;;;;;;;;;5058977;28;20118;-83
2023/04/15 13:54:58;;;;;;;4.35;2.72;;;;;;;;;;5057498;28;20021;-83
2023/04/15 13:57:24;;;;;;;2.83;2.45;;;;;;;;;;5057829;28;20404;-83
2023/04/15 13:59:50;;;;;;;3.88;2.05;;;;;;;;;;5059151;28;20032;-83
2023/04/15 14:02:15;;;;;;;3.13;2.17;;;;;;;;;;5059167;28;20124;-83
2023/04/15 14:04:41;;;;;;;2.30;2.13;;;;;;;;;;5056245;28;20057;-84
2023/04/15 14:07:06;;;;;;;2.38;2.13;;;;;;;;;;5058758;28;20404;-83
2023/04/15 14:09:32;;;;;;;4.43;2.55;;;;;;;;;;5058132;28;20112;-83
2023/04/15 14:11:58;;;;;;;7.25;3.00;;;;;;;;;;5059971;28;20028;-84
2023/04/15 14:14:26;;;;;;;3.25;2.45;;;;;;;;;;5058146;28;20029;-85
2023/04/15 14:16:52;;;;;;;2.35;2.15;;;;;;;;;;5060064;28;20473;-83
2023/04/15 14:19:18;;;;;;;3.60;2.30;;;;;;;;;;5057914;28;20086;-84
2023/04/15 14:21:43;;;;;;;2.53;2.08;;;;;;;;;;5058031;28;20021;-83
2023/04/15 14:24:10;;;;;;;3.17;2.70;;;;;;;;;;5058194;28;20375;-83
2023/04/15 14:26:35;;;;;;;2.58;1.80;;;;;;;;;;5057639;28;20028;-83
2023/04/15 14:29:01;;;;;;;2.78;2.38;;;;;;;;;;5057834;28;20529;-83
2023/04/15 14:31:26;;;;;;;4.85;2.03;;;;;;;;;;5057694;28;20066;-83
2023/04/15 14:33:52;;;;;;;3.58;2.65;;;;;;;;;;5057870;28;20052;-80
2023/04/15 14:36:17;;;;;;;2.10;1.80;;;;;;;;;;5057356;28;20025;-83
2023/04/15 14:38:47;;;;;;;2.53;1.70;;;;;;;;;;5057361;28;20040;-82
2023/04/15 14:41:12;;;;;;;3.10;2.10;;;;;;;;;;5057927;28;20103;-84
2023/04/15 14:43:38;;;;;;;4.05;1.80;;;;;;;;;;5058088;28;20060;-82